Observation data for Denver City on 11/16/2019      Previous  Date       Current Mesonet Observations  Soil Data  Daily Summary Page  Observations in Plain Language
KDVS 160600Z 19008KT 06/M01 A3018 RMK A01 T00581011  RH  062%=      5-min Rain = 0
KDVS 160605Z 18007KT 06/M01 A3018 RMK A01 T00571011  RH  062%=      5-min Rain = 0
KDVS 160610Z 18007KT 06/M01 A3017 RMK A01 T00551011  RH  063%=      5-min Rain = 0
KDVS 160615Z 18007KT 05/M01 A3017 RMK A01 T00541011  RH  064%=      5-min Rain = 0
KDVS 160620Z 18007KT 05/M01 A3017 RMK A01 T00531011  RH  064%=      5-min Rain = 0
KDVS 160625Z 18007KT 05/M01 A3017 RMK A01 T00521010  RH  064%=      5-min Rain = 0
KDVS 160630Z 18007KT 05/M01 A3017 RMK A01 T00521010  RH  065%=      5-min Rain = 0
KDVS 160635Z 18006KT 05/M01 A3017 RMK A01 T00501010  RH  066%=      5-min Rain = 0
KDVS 160640Z 18006KT 05/M01 A3016 RMK A01 T00481010  RH  067%=      5-min Rain = 0
KDVS 160645Z 19006KT 05/M01 A3016 RMK A01 T00461010  RH  067%=      5-min Rain = 0
KDVS 160650Z 19005KT 05/M01 A3016 RMK A01 T00451010  RH  068%=      5-min Rain = 0
KDVS 160655Z 20005KT 04/M01 A3016 RMK A01 T00431010  RH  069%=      5-min Rain = 0
KDVS 160700Z 20005KT 04/M01 A3016 RMK A01 T00401011  RH  070%=      5-min Rain = 0
KDVS 160705Z 20005KT 04/M01 A3016 RMK A01 T00381010  RH  071%=      5-min Rain = 0
KDVS 160710Z 20005KT 04/M01 A3016 RMK A01 T00371010  RH  072%=      5-min Rain = 0
KDVS 160715Z 20004KT 04/M01 A3016 RMK A01 T00371010  RH  072%=      5-min Rain = 0
KDVS 160720Z 21004KT 04/M01 A3016 RMK A01 T00361011  RH  072%=      5-min Rain = 0
KDVS 160725Z 20004KT 04/M01 A3016 RMK A01 T00351011  RH  072%=      5-min Rain = 0
KDVS 160730Z 21004KT 04/M01 A3016 RMK A01 T00351011  RH  073%=      5-min Rain = 0
KDVS 160735Z 20004KT 04/M01 A3015 RMK A01 T00351011  RH  073%=      5-min Rain = 0
KDVS 160740Z 20005KT 03/M01 A3015 RMK A01 T00341011  RH  073%=      5-min Rain = 0
KDVS 160745Z 20004KT 03/M01 A3015 RMK A01 T00331011  RH  074%=      5-min Rain = 0
KDVS 160750Z 21004KT 03/M01 A3015 RMK A01 T00321011  RH  074%=      5-min Rain = 0
KDVS 160755Z 22005KT 03/M01 A3015 RMK A01 T00311011  RH  075%=      5-min Rain = 0
KDVS 160800Z 22005KT 03/M01 A3015 RMK A01 T00301011  RH  075%=      5-min Rain = 0
KDVS 160805Z 21006KT 03/M01 A3015 RMK A01 T00311011  RH  075%=      5-min Rain = 0
KDVS 160810Z 20006KT 03/M01 A3015 RMK A01 T00321010  RH  074%=      5-min Rain = 0
KDVS 160815Z 20006KT 03/M01 A3014 RMK A01 T00331010  RH  074%=      5-min Rain = 0
KDVS 160820Z 20006KT 03/M01 A3014 RMK A01 T00331010  RH  074%=      5-min Rain = 0
KDVS 160825Z 19006KT 03/M01 A3014 RMK A01 T00321011  RH  074%=      5-min Rain = 0
KDVS 160830Z 20006KT 03/M01 A3014 RMK A01 T00311011  RH  075%=      5-min Rain = 0
KDVS 160835Z 20006KT 03/M01 A3014 RMK A01 T00291012  RH  075%=      5-min Rain = 0
KDVS 160840Z 20006KT 03/M01 A3014 RMK A01 T00271012  RH  076%=      5-min Rain = 0
KDVS 160845Z 21006KT 03/M01 A3014 RMK A01 T00261012  RH  077%=      5-min Rain = 0
KDVS 160850Z 21007KT 03/M01 A3014 RMK A01 T00251012  RH  078%=      5-min Rain = 0
KDVS 160855Z 21007KT 03/M01 A3014 RMK A01 T00251011  RH  078%=      5-min Rain = 0
KDVS 160900Z 21007KT 03/M01 A3014 RMK A01 T00251011  RH  078%=      5-min Rain = 0
KDVS 160905Z 21007KT 03/M01 A3013 RMK A01 T00251011  RH  078%=      5-min Rain = 0
KDVS 160910Z 21007KT 02/M01 A3013 RMK A01 T00241010  RH  079%=      5-min Rain = 0
KDVS 160915Z 21007KT 03/M01 A3013 RMK A01 T00251009  RH  079%=      5-min Rain = 0
KDVS 160920Z 21007KT 03/M01 A3013 RMK A01 T00261008  RH  079%=      5-min Rain = 0
KDVS 160925Z 21007KT 03/M01 A3013 RMK A01 T00271008  RH  079%=      5-min Rain = 0
KDVS 160930Z 21008KT 03/M01 A3013 RMK A01 T00261009  RH  079%=      5-min Rain = 0
KDVS 160935Z 22007KT 03/M01 A3013 RMK A01 T00251008  RH  079%=      5-min Rain = 0
KDVS 160940Z 22007KT 03/M01 A3014 RMK A01 T00251008  RH  080%=      5-min Rain = 0
KDVS 160945Z 21006KT 02/M01 A3013 RMK A01 T00241009  RH  080%=      5-min Rain = 0
KDVS 160950Z 22006KT 02/M01 A3013 RMK A01 T00221010  RH  081%=      5-min Rain = 0
KDVS 160955Z 22006KT 02/M01 A3013 RMK A01 T00201010  RH  082%=      5-min Rain = 0
KDVS 161000Z 22006KT 02/M01 A3013 RMK A01 T00191009  RH  082%=      5-min Rain = 0
KDVS 161005Z 22006KT 02/M01 A3013 RMK A01 T00191009  RH  083%=      5-min Rain = 0
KDVS 161010Z 22006KT 02/M01 A3013 RMK A01 T00191009  RH  083%=      5-min Rain = 0
KDVS 161015Z 22006KT 02/M01 A3013 RMK A01 T00181008  RH  083%=      5-min Rain = 0
KDVS 161020Z 22006KT 02/M01 A3012 RMK A01 T00191007  RH  083%=      5-min Rain = 0
KDVS 161025Z 21006KT 02/M01 A3012 RMK A01 T00201007  RH  083%=      5-min Rain = 0
KDVS 161030Z 21006KT 02/M01 A3012 RMK A01 T00211007  RH  083%=      5-min Rain = 0
KDVS 161035Z 22006KT 02/M01 A3012 RMK A01 T00201008  RH  082%=      5-min Rain = 0
KDVS 161040Z 22006KT 02/M01 A3011 RMK A01 T00201008  RH  083%=      5-min Rain = 0
KDVS 161045Z 21006KT 02/M01 A3011 RMK A01 T00201008  RH  083%=      5-min Rain = 0
KDVS 161050Z 21006KT 02/M01 A3011 RMK A01 T00201008  RH  083%=      5-min Rain = 0
KDVS 161055Z 21006KT 02/M01 A3011 RMK A01 T00201008  RH  083%=      5-min Rain = 0
KDVS 161100Z 21006KT 02/M01 A3011 RMK A01 T00201008  RH  083%=      5-min Rain = 0
KDVS 161105Z 21006KT 02/M01 A3011 RMK A01 T00211007  RH  083%=      5-min Rain = 0
KDVS 161110Z 20006KT 02/M01 A3011 RMK A01 T00211007  RH  082%=      5-min Rain = 0
KDVS 161115Z 21006KT 02/M01 A3011 RMK A01 T00211008  RH  082%=      5-min Rain = 0
KDVS 161120Z 21007KT 02/M01 A3011 RMK A01 T00201008  RH  083%=      5-min Rain = 0
KDVS 161125Z 21007KT 02/M01 A3011 RMK A01 T00191009  RH  083%=      5-min Rain = 0
KDVS 161130Z 20006KT 02/M01 A3011 RMK A01 T00181009  RH  083%=      5-min Rain = 0
KDVS 161135Z 20006KT 02/M01 A3011 RMK A01 T00181008  RH  083%=      5-min Rain = 0
KDVS 161140Z 20006KT 02/M01 A3011 RMK A01 T00191007  RH  083%=      5-min Rain = 0
KDVS 161145Z 20006KT 02/M01 A3011 RMK A01 T00191008  RH  083%=      5-min Rain = 0
KDVS 161150Z 21006KT 02/M01 A3011 RMK A01 T00181008  RH  084%=      5-min Rain = 0
KDVS 161155Z 21006KT 02/M01 A301 RMK A01 T00171008  RH  084%=      5-min Rain = 0
KDVS 161200Z 21007KT 02/M01 A3011 RMK A01 T00171007  RH  085%=      5-min Rain = 0
KDVS 161205Z 20007KT 02/M01 A301 RMK A01 T00181007  RH  085%=      5-min Rain = 0
KDVS 161210Z 20008KT 02/M01 A301 RMK A01 T00171007  RH  084%=      5-min Rain = 0
KDVS 161215Z 20008KT 02/M01 A301 RMK A01 T00161009  RH  085%=      5-min Rain = 0
KDVS 161220Z 20007KT 02/M01 A3011 RMK A01 T00151009  RH  085%=      5-min Rain = 0
KDVS 161225Z 20007KT 01/M01 A3011 RMK A01 T00141009  RH  086%=      5-min Rain = 0
KDVS 161230Z 20007KT 01/M01 A3011 RMK A01 T00131009  RH  086%=      5-min Rain = 0
KDVS 161235Z 20008KT 01/M01 A3011 RMK A01 T00131009  RH  086%=      5-min Rain = 0
KDVS 161240Z 20008KT 01/M01 A3011 RMK A01 T00121009  RH  086%=      5-min Rain = 0
KDVS 161245Z 20007KT 01/M01 A3011 RMK A01 T00111009  RH  087%=      5-min Rain = 0
KDVS 161250Z 21007KT 01/M01 A3011 RMK A01 T00111010  RH  087%=      5-min Rain = 0
KDVS 161255Z 21007KT 01/M01 A3011 RMK A01 T00101011  RH  087%=      5-min Rain = 0
KDVS 161300Z 21006KT 01/M01 A3011 RMK A01 T00081012  RH  088%=      5-min Rain = 0
KDVS 161305Z 21006KT 01/M01 A3011 RMK A01 T00071012  RH  088%=      5-min Rain = 0
KDVS 161310Z 21005KT 01/M01 A3012 RMK A01 T00081011  RH  089%=      5-min Rain = 0
KDVS 161315Z 21005KT 01/M01 A3012 RMK A01 T00071011  RH  089%=      5-min Rain = 0
KDVS 161320Z 21005KT 01/M01 A3012 RMK A01 T00071011  RH  089%=      5-min Rain = 0
KDVS 161325Z 21006KT 01/M01 A3012 RMK A01 T00081010  RH  089%=      5-min Rain = 0
KDVS 161330Z 21007KT 01/M01 A3012 RMK A01 T00091009  RH  089%=      5-min Rain = 0
KDVS 161335Z 21007KT 01/M01 A3012 RMK A01 T00101007  RH  089%=      5-min Rain = 0
KDVS 161340Z 22006KT 01/M01 A3012 RMK A01 T00131006  RH  088%=      5-min Rain = 0
KDVS 161345Z 22006KT 02/M01 A3012 RMK A01 T00151005  RH  087%=      5-min Rain = 0
KDVS 161350Z 22006KT 02/M00 A3012 RMK A01 T00171004  RH  087%=      5-min Rain = 0
KDVS 161355Z 22006KT 02/M00 A3012 RMK A01 T00211003  RH  085%=      5-min Rain = 0
KDVS 161400Z 22005KT 02/M00 A3012 RMK A01 T00241002  RH  084%=      5-min Rain = 0
KDVS 161405Z 22005KT 03/M00 A3012 RMK A01 T00251002  RH  083%=      5-min Rain = 0
KDVS 161410Z 22006KT 03/M00 A3012 RMK A01 T00261002  RH  082%=      5-min Rain = 0
KDVS 161415Z 22006KT 03/M00 A3012 RMK A01 T00291001  RH  082%=      5-min Rain = 0
KDVS 161420Z 22007KT 03/00 A3012 RMK A01 T003200-0  RH  081%=      5-min Rain = 0
KDVS 161425Z 21008KT 03/00 A3012 RMK A01 T00340000  RH  080%=      5-min Rain = 0
KDVS 161430Z 21008KT 04/00 A3012 RMK A01 T00370002  RH  078%=      5-min Rain = 0
KDVS 161435Z 21008KT 04/00 A3012 RMK A01 T00420003  RH  077%=      5-min Rain = 0
KDVS 161440Z 21007KT 05/00 A3012 RMK A01 T00450003  RH  075%=      5-min Rain = 0
KDVS 161445Z 21008KT 05/00 A3012 RMK A01 T00490004  RH  074%=      5-min Rain = 0
KDVS 161450Z 21008KT 05/01 A3012 RMK A01 T00520005  RH  072%=      5-min Rain = 0
KDVS 161455Z 21007KT 06/01 A3012 RMK A01 T00550006  RH  072%=      5-min Rain = 0
KDVS 161500Z 21008KT 06/01 A3012 RMK A01 T00570006  RH  071%=      5-min Rain = 0
KDVS 161505Z 21007KT 06/01 A3012 RMK A01 T00590006  RH  070%=      5-min Rain = 0
KDVS 161510Z 21007KT 06/01 A3012 RMK A01 T00620008  RH  069%=      5-min Rain = 0
KDVS 161515Z 20007KT 06/01 A3012 RMK A01 T00630008  RH  069%=      5-min Rain = 0
KDVS 161520Z 20009KT 07/01 A3012 RMK A01 T00660009  RH  068%=      5-min Rain = 0
KDVS 161525Z 20009KT 07/01 A3012 RMK A01 T00700011  RH  067%=      5-min Rain = 0
KDVS 161530Z 21010KT 07/01 A3012 RMK A01 T00720009  RH  065%=      5-min Rain = 0
KDVS 161535Z 21009KT 08/01 A3012 RMK A01 T00750010  RH  064%=      5-min Rain = 0
KDVS 161540Z 21009KT 08/01 A3012 RMK A01 T00770010  RH  063%=      5-min Rain = 0
KDVS 161545Z 22009KT 08/01 A3012 RMK A01 T00810009  RH  061%=      5-min Rain = 0
KDVS 161550Z 22009KT 08/01 A3011 RMK A01 T00830007  RH  059%=      5-min Rain = 0
KDVS 161555Z 22007KT 09/01 A3011 RMK A01 T00860008  RH  059%=      5-min Rain = 0
KDVS 161600Z 22007KT 09/01 A3011 RMK A01 T00860007  RH  059%=      5-min Rain = 0
KDVS 161605Z 22006KT 09/01 A3011 RMK A01 T00880009  RH  058%=      5-min Rain = 0
KDVS 161610Z 22006KT 09/01 A3011 RMK A01 T00910009  RH  057%=      5-min Rain = 0
KDVS 161615Z 21007KT 10/01 A3011 RMK A01 T00950009  RH  056%=      5-min Rain = 0
KDVS 161620Z 21008KT 10/01 A3011 RMK A01 T00990007  RH  053%=      5-min Rain = 0
KDVS 161625Z 21008KT 10/01 A3011 RMK A01 T01020007  RH  052%=      5-min Rain = 0
KDVS 161630Z 22008KT 11/01 A3011 RMK A01 T01070005  RH  050%=      5-min Rain = 0
KDVS 161635Z 21007KT 11/01 A3011 RMK A01 T01100006  RH  049%=      5-min Rain = 0
KDVS 161640Z 21008KT 12/00 A3011 RMK A01 T01150004  RH  047%=      5-min Rain = 0
KDVS 161645Z 21006KT 12/00 A301 RMK A01 T01190002  RH  045%=      5-min Rain = 0
KDVS 161650Z 21007KT 12/00 A301 RMK A01 T01210002  RH  044%=      5-min Rain = 0
KDVS 161655Z 21007KT 12/00 A301 RMK A01 T01230000  RH  043%=      5-min Rain = 0
KDVS 161700Z 20007KT 13/00 A301 RMK A01 T01250001  RH  043%=      5-min Rain = 0
KDVS 161705Z 20007KT 13/01 A301 RMK A01 T01300005  RH  043%=      5-min Rain = 0
KDVS 161710Z 19006KT 13/00 A301 RMK A01 T01300004  RH  042%=      5-min Rain = 0
KDVS 161715Z 20006KT 13/00 A3009 RMK A01 T01310002  RH  042%=      5-min Rain = 0
KDVS 161720Z 20008KT 13/00 A3009 RMK A01 T01320001  RH  041%=      5-min Rain = 0
KDVS 161725Z 19008KT 13/00 A3009 RMK A01 T01310001  RH  041%=      5-min Rain = 0
KDVS 161730Z 19008KT 13/00 A3009 RMK A01 T01300001  RH  042%=      5-min Rain = 0
KDVS 161735Z 20008KT 13/00 A3008 RMK A01 T01310001  RH  041%=      5-min Rain = 0
KDVS 161740Z 19008KT 13/00 A3008 RMK A01 T013000-0  RH  041%=      5-min Rain = 0
KDVS 161745Z 19008KT 13/M00 A3008 RMK A01 T01291001  RH  041%=      5-min Rain = 0
KDVS 161750Z 20008KT 13/00 A3008 RMK A01 T01300002  RH  042%=      5-min Rain = 0
KDVS 161755Z 18009KT 13/00 A3008 RMK A01 T01340001  RH  041%=      5-min Rain = 0
KDVS 161800Z 20008KT 13/00 A3007 RMK A01 T01340002  RH  041%=      5-min Rain = 0
KDVS 161805Z 18008KT 14/00 A3007 RMK A01 T01380002  RH  040%=      5-min Rain = 0
KDVS 161810Z 19008KT 14/00 A3007 RMK A01 T014100-0  RH  038%=      5-min Rain = 0
KDVS 161815Z 20006KT 14/M00 A3006 RMK A01 T01431001  RH  038%=      5-min Rain = 0
KDVS 161820Z 19008KT 15/M00 A3006 RMK A01 T01451002  RH  037%=      5-min Rain = 0
KDVS 161825Z 20008KT 15/M00 A3006 RMK A01 T01501001  RH  036%=      5-min Rain = 0
KDVS 161830Z 19006KT 15/M00 A3005 RMK A01 T01541004  RH  034%=      5-min Rain = 0
KDVS 161835Z 19007KT 15/M01 A3005 RMK A01 T01531007  RH  034%=      5-min Rain = 0
KDVS 161840Z 20007KT 15/M01 A3004 RMK A01 T01511008  RH  034%=      5-min Rain = 0
KDVS 161845Z 22007KT 15/M01 A3004 RMK A01 T01531009  RH  033%=      5-min Rain = 0
KDVS 161850Z 20008KT 16/M01 A3004 RMK A01 T01571007  RH  033%=      5-min Rain = 0
KDVS 161855Z 20006KT 16/M01 A3004 RMK A01 T01571007  RH  033%=      5-min Rain = 0
KDVS 161900Z 20007KT 16/M01 A3003 RMK A01 T01551008  RH  033%=      5-min Rain = 0
KDVS 161905Z 18006KT 15/M01 A3003 RMK A01 T01541006  RH  034%=      5-min Rain = 0
KDVS 161910Z 20007KT 16/M01 A3003 RMK A01 T01571005  RH  033%=      5-min Rain = 0
KDVS 161915Z 19006KT 16/M01 A3003 RMK A01 T01581005  RH  033%=      5-min Rain = 0
KDVS 161920Z 20007KT 16/M01 A3003 RMK A01 T01551007  RH  033%=      5-min Rain = 0
KDVS 161925Z 19009KT 16/M01 A3002 RMK A01 T01551006  RH  034%=      5-min Rain = 0
KDVS 161930Z 19009KT 15/M01 A3002 RMK A01 T01541006  RH  034%=      5-min Rain = 0
KDVS 161935Z 19008KT 16/M01 A3002 RMK A01 T01561007  RH  033%=      5-min Rain = 0
KDVS 161940Z 19009KT 16/M01 A3002 RMK A01 T01601007  RH  032%=      5-min Rain = 0
KDVS 161945Z 19008KT 16/M01 A3001 RMK A01 T01601008  RH  032%=      5-min Rain = 0
KDVS 161950Z 21008KT 16/M01 A3001 RMK A01 T01591008  RH  032%=      5-min Rain = 0
KDVS 161955Z 21009KT 16/M01 A3001 RMK A01 T01601008  RH  032%=      5-min Rain = 0
KDVS 162000Z 21009KT 16/M01 A3001 RMK A01 T01601009  RH  032%=      5-min Rain = 0
KDVS 162005Z 21008KT 16/M01 A3001 RMK A01 T01601011  RH  031%=      5-min Rain = 0
KDVS 162010Z 21008KT 17/M01 A3001 RMK A01 T01651011  RH  030%=      5-min Rain = 0
KDVS 162015Z 22007KT 17/M01 A30 RMK A01 T01671011  RH  030%=      5-min Rain = 0
KDVS 162020Z 21006KT 17/M01 A30 RMK A01 T01691010  RH  030%=      5-min Rain = 0
KDVS 162025Z 21007KT 17/M01 A30 RMK A01 T01711010  RH  029%=      5-min Rain = 0
KDVS 162030Z 21007KT 17/M01 A30 RMK A01 T01741012  RH  028%=      5-min Rain = 0
KDVS 162035Z 24008KT 18/M02 A2999 RMK A01 T01761015  RH  027%=      5-min Rain = 0
KDVS 162040Z 22009KT 18/M02 A2999 RMK A01 T01781016  RH  027%=      5-min Rain = 0
KDVS 162045Z 23009KT 18/M02 A2999 RMK A01 T01781017  RH  027%=      5-min Rain = 0
KDVS 162050Z 20007KT 18/M01 A2999 RMK A01 T01811013  RH  027%=      5-min Rain = 0
KDVS 162055Z 21008G13KT 19/M01 A2999 RMK A01 T01851014  RH  026%=      5-min Rain = 0
KDVS 162100Z 21008KT 19/M02 A2999 RMK A01 T01871018  RH  025%=      5-min Rain = 0
KDVS 162105Z 23009KT 19/M02 A2999 RMK A01 T01861021  RH  025%=      5-min Rain = 0
KDVS 162110Z 22009KT 18/M02 A2999 RMK A01 T01841021  RH  025%=      5-min Rain = 0
KDVS 162115Z 22011KT 18/M02 A2998 RMK A01 T01841022  RH  025%=      5-min Rain = 0
KDVS 162120Z 24009KT 18/M02 A2998 RMK A01 T01811020  RH  026%=      5-min Rain = 0
KDVS 162125Z 23007KT 18/M02 A2998 RMK A01 T01821018  RH  026%=      5-min Rain = 0
KDVS 162130Z 19010KT 18/M01 A2998 RMK A01 T01831011  RH  027%=      5-min Rain = 0
KDVS 162135Z 20011KT 18/M01 A2998 RMK A01 T01801007  RH  028%=      5-min Rain = 0
KDVS 162140Z 19010KT 18/M01 A2998 RMK A01 T01791008  RH  029%=      5-min Rain = 0
KDVS 162145Z 19009KT 18/M01 A2998 RMK A01 T01801007  RH  028%=      5-min Rain = 0
KDVS 162150Z 19011KT 18/M01 A2998 RMK A01 T01811008  RH  028%=      5-min Rain = 0
KDVS 162155Z 18010KT 18/M01 A2998 RMK A01 T01801007  RH  028%=      5-min Rain = 0
KDVS 162200Z 19011KT 18/M01 A2998 RMK A01 T01781010  RH  028%=      5-min Rain = 0
KDVS 162205Z 19010KT 17/M01 A2998 RMK A01 T01731010  RH  029%=      5-min Rain = 0
KDVS 162210Z 19009KT 17/M01 A2998 RMK A01 T01711011  RH  029%=      5-min Rain = 0
KDVS 162215Z 19010KT 17/M01 A2998 RMK A01 T01721011  RH  029%=      5-min Rain = 0
KDVS 162220Z 18010KT 17/M01 A2998 RMK A01 T01731012  RH  029%=      5-min Rain = 0
KDVS 162225Z 19011KT 18/M01 A2998 RMK A01 T01751013  RH  028%=      5-min Rain = 0
KDVS 162230Z 19011KT 17/M01 A2998 RMK A01 T01721013  RH  029%=      5-min Rain = 0
KDVS 162235Z 19012KT 17/M01 A2998 RMK A01 T01711013  RH  029%=      5-min Rain = 0
KDVS 162240Z 19012KT 17/M01 A2998 RMK A01 T01701014  RH  029%=      5-min Rain = 0
KDVS 162245Z 19010KT 17/M01 A2998 RMK A01 T01701013  RH  029%=      5-min Rain = 0
KDVS 162250Z 19012KT 17/M02 A2997 RMK A01 T01691015  RH  029%=      5-min Rain = 0
KDVS 162255Z 19012KT 17/M02 A2997 RMK A01 T01681015  RH  029%=      5-min Rain = 0
KDVS 162300Z 20013KT 17/M02 A2997 RMK A01 T01671016  RH  029%=      5-min Rain = 0
KDVS 162305Z 20011KT 17/M02 A2997 RMK A01 T01661017  RH  029%=      5-min Rain = 0
KDVS 162310Z 19011KT 17/M02 A2997 RMK A01 T01651016  RH  029%=      5-min Rain = 0
KDVS 162315Z 19010KT 16/M02 A2997 RMK A01 T01631015  RH  030%=      5-min Rain = 0
KDVS 162320Z 18010KT 16/M01 A2997 RMK A01 T01621011  RH  031%=      5-min Rain = 0
KDVS 162325Z 18010KT 16/M01 A2997 RMK A01 T01601008  RH  032%=      5-min Rain = 0
KDVS 162330Z 18008KT 16/M01 A2997 RMK A01 T01571006  RH  033%=      5-min Rain = 0
KDVS 162335Z 18008KT 16/M01 A2997 RMK A01 T01551005  RH  034%=      5-min Rain = 0
KDVS 162340Z 18007KT 15/M00 A2998 RMK A01 T01521004  RH  035%=      5-min Rain = 0
KDVS 162345Z 18008KT 15/M00 A2997 RMK A01 T01491003  RH  036%=      5-min Rain = 0
KDVS 162350Z 19007KT 15/M00 A2998 RMK A01 T01461001  RH  037%=      5-min Rain = 0
KDVS 162355Z 19007KT 14/00 A2998 RMK A01 T01430000  RH  038%=      5-min Rain = 0
KDVS 170000Z 18007KT 14/00 A2998 RMK A01 T01400001  RH  039%=      5-min Rain = 0
KDVS 170005Z 18007KT 14/00 A2998 RMK A01 T01370001  RH  040%=      5-min Rain = 0
KDVS 170010Z 18007KT 13/00 A2998 RMK A01 T01340002  RH  041%=      5-min Rain = 0
KDVS 170015Z 19007KT 13/00 A2998 RMK A01 T01310002  RH  042%=      5-min Rain = 0
KDVS 170020Z 19007KT 13/00 A2999 RMK A01 T01290002  RH  042%=      5-min Rain = 0
KDVS 170025Z 18007KT 13/00 A2998 RMK A01 T01270002  RH  043%=      5-min Rain = 0
KDVS 170030Z 18007KT 13/00 A2998 RMK A01 T01260003  RH  043%=      5-min Rain = 0
KDVS 170035Z 18008KT 12/00 A2998 RMK A01 T01240003  RH  044%=      5-min Rain = 0
KDVS 170040Z 19008KT 12/00 A2998 RMK A01 T01230003  RH  044%=      5-min Rain = 0
KDVS 170045Z 19008KT 12/00 A2998 RMK A01 T01210003  RH  045%=      5-min Rain = 0
KDVS 170050Z 19008KT 12/00 A2998 RMK A01 T01190003  RH  045%=      5-min Rain = 0
KDVS 170055Z 19008KT 12/00 A2998 RMK A01 T01150003  RH  047%=      5-min Rain = 0
KDVS 170100Z 19008KT 11/00 A2998 RMK A01 T01120004  RH  048%=      5-min Rain = 0
KDVS 170105Z 19008KT 11/00 A2998 RMK A01 T01100004  RH  048%=      5-min Rain = 0
KDVS 170110Z 18008KT 11/00 A2998 RMK A01 T01070004  RH  050%=      5-min Rain = 0
KDVS 170115Z 18008KT 10/00 A2998 RMK A01 T01040004  RH  050%=      5-min Rain = 0
KDVS 170120Z 19008KT 10/00 A2998 RMK A01 T01020004  RH  051%=      5-min Rain = 0
KDVS 170125Z 19008KT 10/00 A2999 RMK A01 T01030004  RH  051%=      5-min Rain = 0
KDVS 170130Z 19007KT 10/00 A2998 RMK A01 T01020004  RH  051%=      5-min Rain = 0
KDVS 170135Z 19007KT 10/00 A2998 RMK A01 T00990004  RH  052%=      5-min Rain = 0
KDVS 170140Z 20007KT 10/00 A2998 RMK A01 T00960004  RH  053%=      5-min Rain = 0
KDVS 170145Z 21007KT 09/00 A2998 RMK A01 T00900004  RH  055%=      5-min Rain = 0
KDVS 170150Z 21008KT 09/01 A2998 RMK A01 T00870005  RH  057%=      5-min Rain = 0
KDVS 170155Z 21008KT 09/01 A2999 RMK A01 T00850005  RH  058%=      5-min Rain = 0
KDVS 170200Z 21009KT 09/01 A2999 RMK A01 T00850005  RH  058%=      5-min Rain = 0
KDVS 170205Z 21009KT 09/01 A2998 RMK A01 T00860006  RH  058%=      5-min Rain = 0
KDVS 170210Z 21009KT 09/01 A2998 RMK A01 T00860006  RH  058%=      5-min Rain = 0
KDVS 170215Z 21008KT 09/01 A2998 RMK A01 T00860006  RH  058%=      5-min Rain = 0
KDVS 170220Z 21009KT 09/01 A2998 RMK A01 T00850006  RH  058%=      5-min Rain = 0
KDVS 170225Z 21008KT 09/01 A2998 RMK A01 T00850006  RH  058%=      5-min Rain = 0
KDVS 170230Z 21008KT 09/01 A2998 RMK A01 T00850006  RH  058%=      5-min Rain = 0
KDVS 170235Z 22007KT 09/01 A2998 RMK A01 T00860007  RH  058%=      5-min Rain = 0
KDVS 170240Z 22007KT 09/01 A2998 RMK A01 T00880008  RH  058%=      5-min Rain = 0
KDVS 170245Z 23007KT 09/01 A2998 RMK A01 T00890008  RH  057%=      5-min Rain = 0
KDVS 170250Z 22007KT 09/01 A2998 RMK A01 T00880007  RH  058%=      5-min Rain = 0
KDVS 170255Z 22006KT 09/01 A2998 RMK A01 T00850007  RH  059%=      5-min Rain = 0
KDVS 170300Z 23006KT 08/01 A2998 RMK A01 T00820007  RH  060%=      5-min Rain = 0
KDVS 170305Z 23006KT 08/01 A2998 RMK A01 T00800007  RH  061%=      5-min Rain = 0
KDVS 170310Z 23006KT 08/01 A2998 RMK A01 T00770008  RH  062%=      5-min Rain = 0
KDVS 170315Z 23006KT 08/01 A2998 RMK A01 T00750007  RH  063%=      5-min Rain = 0
KDVS 170320Z 23006KT 07/01 A2998 RMK A01 T00740007  RH  063%=      5-min Rain = 0
KDVS 170325Z 23007KT 07/01 A2998 RMK A01 T00710007  RH  064%=      5-min Rain = 0
KDVS 170330Z 23007KT 07/01 A2998 RMK A01 T00690007  RH  065%=      5-min Rain = 0
KDVS 170335Z 23008KT 07/01 A2998 RMK A01 T00690008  RH  066%=      5-min Rain = 0
KDVS 170340Z 23008KT 07/01 A2998 RMK A01 T00700009  RH  066%=      5-min Rain = 0
KDVS 170345Z 23008KT 07/01 A2999 RMK A01 T00690009  RH  066%=      5-min Rain = 0
KDVS 170350Z 23007KT 07/01 A2999 RMK A01 T00680009  RH  067%=      5-min Rain = 0
KDVS 170355Z 23007KT 07/01 A2998 RMK A01 T00670010  RH  068%=      5-min Rain = 0
KDVS 170400Z 22008KT 07/01 A2998 RMK A01 T00680010  RH  067%=      5-min Rain = 0
KDVS 170405Z 22008KT 07/01 A2998 RMK A01 T00670010  RH  068%=      5-min Rain = 0
KDVS 170410Z 23008KT 07/01 A2998 RMK A01 T00660010  RH  068%=      5-min Rain = 0
KDVS 170415Z 23008KT 07/01 A2998 RMK A01 T00650010  RH  069%=      5-min Rain = 0
KDVS 170420Z 23008KT 07/01 A2998 RMK A01 T00660010  RH  069%=      5-min Rain = 0
KDVS 170425Z 24007KT 07/01 A2998 RMK A01 T00660011  RH  069%=      5-min Rain = 0
KDVS 170430Z 24007KT 07/01 A2998 RMK A01 T00660011  RH  069%=      5-min Rain = 0
KDVS 170435Z 25007KT 07/01 A2998 RMK A01 T00670012  RH  069%=      5-min Rain = 0
KDVS 170440Z 25008KT 07/01 A2998 RMK A01 T00670012  RH  068%=      5-min Rain = 0
KDVS 170445Z 24008KT 07/01 A2998 RMK A01 T00680013  RH  069%=      5-min Rain = 0
KDVS 170450Z 24008KT 07/01 A2998 RMK A01 T00700013  RH  068%=      5-min Rain = 0
KDVS 170455Z 24008KT 07/01 A2999 RMK A01 T00680013  RH  069%=      5-min Rain = 0
KDVS 170500Z 24008KT 07/01 A2999 RMK A01 T00660013  RH  070%=      5-min Rain = 0
KDVS 170505Z 24008KT 07/02 A2999 RMK A01 T00650015  RH  071%=      5-min Rain = 0
KDVS 170510Z 24009KT 07/02 A2999 RMK A01 T00660017  RH  072%=      5-min Rain = 0
KDVS 170515Z 24009KT 07/02 A2998 RMK A01 T00680020  RH  072%=      5-min Rain = 0
KDVS 170520Z 24009KT 07/02 A2998 RMK A01 T00690020  RH  073%=      5-min Rain = 0
KDVS 170525Z 24010KT 07/02 A2998 RMK A01 T00690020  RH  073%=      5-min Rain = 0
KDVS 170530Z 24010KT 07/02 A2998 RMK A01 T00680020  RH  073%=      5-min Rain = 0
KDVS 170535Z 24010KT 07/02 A2998 RMK A01 T00670020  RH  073%=      5-min Rain = 0
KDVS 170540Z 24009KT 07/02 A2998 RMK A01 T00670018  RH  072%=      5-min Rain = 0
KDVS 170545Z 23010KT 07/02 A2998 RMK A01 T00670019  RH  072%=      5-min Rain = 0
KDVS 170550Z 23009KT 07/02 A2998 RMK A01 T00670020  RH  073%=      5-min Rain = 0
KDVS 170555Z 23009KT 07/02 A2998 RMK A01 T00670021  RH  074%=      5-min Rain = 0

Page generated in 0.0109 seconds.